Time;durP1;ratioP1;P1;durP2;ratioP2;P2;SDS_P1;SDS_P2;PMS_P1;PMS_P2;Temp;Humidity;BMP_temperature;BMP_pressure;BME280_temperature;BME280_humidity;BME280_pressure;Samples;Min_cycle;Max_cycle;Signal;HPM_P1;HPM_P2
2023/07/01 00:01:12;;;;;;;10.85;6.75;;;;;;;17.92;84.38;94503.47;5011015;28;20192;-88
2023/07/01 00:03:37;;;;;;;14.98;7.68;;;;;;;17.66;84.04;94453.91;5012929;28;20294;-88
2023/07/01 00:06:02;;;;;;;12.05;7.28;;;;;;;17.78;83.84;94481.09;5027779;28;20565;-88
2023/07/01 00:08:28;;;;;;;14.45;8.00;;;;;;;17.90;84.47;94494.94;5013302;28;20177;-89
2023/07/01 00:11:00;;;;;;;10.95;7.35;;;;;;;17.73;84.23;94478.41;5012806;28;20778;-89
2023/07/01 00:13:27;;;;;;;11.40;6.93;;;;;;;17.47;84.60;94450.91;5012827;28;20165;-89
2023/07/01 00:15:54;;;;;;;10.25;6.95;;;;;;;17.70;84.73;94490.41;5013147;28;20531;-89
2023/07/01 00:18:19;;;;;;;14.20;7.88;;;;;;;17.65;84.92;94471.75;5012095;28;20425;-88
2023/07/01 00:20:45;;;;;;;15.10;7.78;;;;;;;17.63;85.28;94470.44;5011688;28;20918;-87
2023/07/01 00:23:10;;;;;;;11.27;7.22;;;;;;;17.68;84.24;94475.75;5011029;28;20180;-88
2023/07/01 00:25:35;;;;;;;9.82;6.95;;;;;;;17.69;84.42;94462.19;5027762;28;20635;-87
2023/07/01 00:28:01;;;;;;;10.37;7.60;;;;;;;17.61;84.74;94453.88;5026545;28;20410;-88
2023/07/01 00:30:26;;;;;;;11.55;7.28;;;;;;;17.77;84.11;94492.81;5011242;28;20200;-88
2023/07/01 00:32:52;;;;;;;12.63;7.30;;;;;;;17.91;84.92;94514.38;5026787;28;20428;-87
2023/07/01 00:35:17;;;;;;;10.25;6.85;;;;;;;17.41;84.72;94432.53;5027248;28;20242;-87
2023/07/01 00:37:42;;;;;;;12.13;7.07;;;;;;;17.60;84.28;94485.03;5027235;28;20644;-87
2023/07/01 00:40:09;;;;;;;10.70;6.20;;;;;;;17.40;84.49;94461.00;5011250;28;20609;-87
2023/07/01 00:42:34;;;;;;;14.63;7.25;;;;;;;17.48;84.76;94475.66;5010135;28;20487;-87
2023/07/01 00:44:59;;;;;;;9.93;6.85;;;;;;;17.59;84.58;94488.75;5011429;28;20663;-88
2023/07/01 00:47:25;;;;;;;13.00;7.32;;;;;;;17.53;84.93;94479.16;5012278;28;20594;-88
2023/07/01 00:49:51;;;;;;;8.63;6.07;;;;;;;17.27;84.77;94448.22;5012064;28;20777;-87
2023/07/01 00:52:17;;;;;;;14.15;6.88;;;;;;;17.16;85.53;94446.59;5012140;28;20176;-88
2023/07/01 00:54:43;;;;;;;17.85;6.93;;;;;;;17.22;85.77;94458.84;5010982;28;20559;-87
2023/07/01 00:57:09;;;;;;;12.60;6.65;;;;;;;17.18;85.48;94452.44;5010938;28;20569;-88
2023/07/01 00:59:34;;;;;;;10.95;6.32;;;;;;;17.03;85.26;94415.16;5010880;28;20172;-88
2023/07/01 01:02:04;;;;;;;8.63;5.97;;;;;;;17.43;85.20;94497.75;5027359;28;20184;-88
2023/07/01 01:04:45;;;;;;;12.52;6.65;;;;;;;17.41;85.42;94486.56;5010662;28;20629;-88
2023/07/01 01:07:20;;;;;;;15.32;6.28;;;;;;;17.26;85.28;94463.38;5012740;28;20640;-89
2023/07/01 01:09:51;;;;;;;8.10;5.70;;;;;;;17.35;85.11;94475.13;5010934;28;20208;-89
2023/07/01 01:12:20;;;;;;;11.38;7.00;;;;;;;17.25;85.53;94453.00;5012110;28;20206;-90
2023/07/01 01:14:48;;;;;;;16.25;6.93;;;;;;;17.53;85.60;94494.31;5027312;28;20658;-89
2023/07/01 01:17:14;;;;;;;8.85;5.80;;;;;;;17.60;85.64;94502.84;5012019;28;20179;-89
2023/07/01 01:19:46;;;;;;;9.25;6.05;;;;;;;17.62;85.63;94506.09;5011922;28;20196;-90
2023/07/01 01:22:24;;;;;;;16.45;6.68;;;;;;;17.34;85.43;94454.09;5010444;28;20177;-89
2023/07/01 01:24:53;;;;;;;13.25;6.45;;;;;;;17.34;85.01;94446.09;5009732;28;20176;-89
2023/07/01 01:27:24;;;;;;;9.35;5.85;;;;;;;17.64;84.82;94496.00;5010325;28;20165;-88
2023/07/01 01:29:50;;;;;;;14.68;6.47;;;;;;;17.17;85.03;94432.22;5026775;28;20196;-88
2023/07/01 01:32:16;;;;;;;10.55;5.90;;;;;;;17.18;85.35;94439.94;5010639;28;20207;-88
2023/07/01 01:34:41;;;;;;;7.97;6.25;;;;;;;17.35;85.52;94464.47;5011900;28;20180;-89
2023/07/01 01:37:14;;;;;;;11.35;6.38;;;;;;;17.12;85.49;94429.56;5011835;28;20624;-88
2023/07/01 01:39:45;;;;;;;9.93;5.93;;;;;;;17.15;85.81;94443.13;5010570;28;20242;-89
2023/07/01 01:42:43;;;;;;;12.80;5.32;;;;;;;17.46;85.82;94489.25;5010664;28;20160;-89
2023/07/01 01:45:09;;;;;;;10.13;6.00;;;;;;;17.19;86.13;94451.38;4999932;28;20434;-89
2023/07/01 01:47:36;;;;;;;11.48;6.50;;;;;;;17.09;86.29;94433.53;5010385;28;20255;-89
2023/07/01 01:50:05;;;;;;;7.68;5.70;;;;;;;17.44;86.59;94486.06;5026915;28;20213;-89
2023/07/01 01:52:33;;;;;;;14.45;5.43;;;;;;;17.14;86.21;94449.50;5012966;28;20234;-89
2023/07/01 01:54:59;;;;;;;7.93;5.80;;;;;;;17.28;86.15;94481.75;5013804;28;20667;-89
2023/07/01 01:57:24;;;;;;;9.88;5.40;;;;;;;17.18;86.48;94463.09;5013438;28;20180;-89
2023/07/01 01:59:51;;;;;;;10.32;7.18;;;;;;;16.90;86.61;94427.88;5012245;28;20226;-89
2023/07/01 02:02:16;;;;;;;11.25;6.07;;;;;;;16.96;86.21;94429.50;5010676;28;20178;-89
2023/07/01 02:04:42;;;;;;;16.05;9.55;;;;;;;16.72;86.41;94392.97;5013625;28;20196;-88
2023/07/01 02:07:07;;;;;;;23.13;10.63;;;;;;;16.96;86.18;94440.13;5014920;28;20180;-90
2023/07/01 02:09:33;;;;;;;11.77;7.78;;;;;;;17.01;86.07;94443.88;5013551;28;20198;-88
2023/07/01 02:11:58;;;;;;;24.00;13.27;;;;;;;17.27;86.21;94488.94;5013701;28;20270;-88
2023/07/01 02:14:24;;;;;;;14.07;8.25;;;;;;;17.32;85.83;94490.78;5013594;28;20576;-88
2023/07/01 02:16:50;;;;;;;10.88;7.13;;;;;;;16.87;85.68;94432.91;5015292;28;20682;-88
2023/07/01 02:19:16;;;;;;;13.75;8.25;;;;;;;16.94;86.57;94450.25;5013600;28;20607;-87
2023/07/01 02:21:41;;;;;;;11.80;7.75;;;;;;;17.20;86.98;94482.25;5013669;28;20647;-89
2023/07/01 02:24:07;;;;;;;11.80;5.93;;;;;;;17.03;86.66;94458.53;5030096;28;20196;-88
2023/07/01 02:26:32;;;;;;;12.02;6.60;;;;;;;16.84;86.86;94428.94;5013582;28;20239;-89
2023/07/01 02:28:58;;;;;;;11.05;6.70;;;;;;;16.80;86.82;94421.72;5013051;28;20196;-87
2023/07/01 02:31:23;;;;;;;9.43;5.68;;;;;;;16.87;86.49;94433.72;5014218;28;20191;-88
2023/07/01 02:33:50;;;;;;;9.93;5.38;;;;;;;17.20;86.81;94485.72;5013007;28;20180;-88
2023/07/01 02:36:15;;;;;;;6.70;5.25;;;;;;;16.90;86.69;94437.72;5014372;28;20247;-88
2023/07/01 02:38:41;;;;;;;10.80;5.18;;;;;;;17.16;86.52;94487.28;5013246;28;20176;-88
2023/07/01 02:41:06;;;;;;;8.10;5.50;;;;;;;16.78;86.69;94440.59;5013220;28;20230;-89
2023/07/01 02:43:31;;;;;;;9.10;5.60;;;;;;;16.75;86.84;94435.81;5014535;28;20874;-89
2023/07/01 02:45:57;;;;;;;6.72;5.32;;;;;;;16.80;86.13;94445.66;5013336;28;20659;-89
2023/07/01 02:48:22;;;;;;;9.50;6.22;;;;;;;17.03;86.59;94489.63;5014418;28;20180;-88
2023/07/01 02:50:48;;;;;;;7.63;5.25;;;;;;;16.87;86.49;94457.63;5013970;28;20196;-89
2023/07/01 02:53:15;;;;;;;8.63;5.57;;;;;;;16.85;86.78;94446.47;5012897;28;20177;-89
2023/07/01 02:55:40;;;;;;;7.93;5.17;;;;;;;16.88;86.47;94461.09;5012442;28;20423;-89
2023/07/01 02:58:06;;;;;;;6.55;5.03;;;;;;;16.87;86.49;94464.81;5013184;28;20651;-89
2023/07/01 03:00:33;;;;;;;6.63;5.18;;;;;;;16.96;85.92;94485.34;5013972;28;20176;-89
2023/07/01 03:03:05;;;;;;;7.70;5.75;;;;;;;16.79;86.29;94470.63;5012884;28;20423;-89
2023/07/01 03:05:36;;;;;;;6.68;5.18;;;;;;;16.60;86.30;94435.72;5013052;28;20172;-89
2023/07/01 03:08:01;;;;;;;9.10;5.10;;;;;;;16.95;86.45;94499.69;5014151;28;20183;-89
2023/07/01 03:10:27;;;;;;;12.15;4.63;;;;;;;16.66;86.98;94471.09;5012967;28;20204;-89
2023/07/01 03:12:53;;;;;;;11.60;5.57;;;;;;;16.51;87.04;94442.56;5014098;28;20199;-89
2023/07/01 03:15:19;;;;;;;9.68;5.25;;;;;;;16.92;87.13;94508.19;5012784;28;20945;-89
2023/07/01 03:17:44;;;;;;;8.55;4.93;;;;;;;16.45;87.66;94435.59;5012810;28;20177;-89
2023/07/01 03:20:22;;;;;;;8.27;5.35;;;;;;;16.62;87.65;94462.03;5012502;28;20233;-89
2023/07/01 03:22:57;;;;;;;7.40;4.97;;;;;;;16.72;88.04;94478.84;5012960;28;20238;-89
2023/07/01 03:25:27;;;;;;;11.20;5.32;;;;;;;16.56;87.84;94445.25;5013859;28;20164;-89
2023/07/01 03:27:52;;;;;;;8.25;4.88;;;;;;;16.77;87.73;94467.44;5013828;28;20164;-89
2023/07/01 03:30:19;;;;;;;8.23;4.90;;;;;;;17.12;87.88;94510.16;5029231;28;20287;-89
2023/07/01 03:32:48;;;;;;;8.93;5.20;;;;;;;17.30;87.44;94509.69;5028574;28;20196;-89
2023/07/01 03:35:15;;;;;;;17.77;5.82;;;;;;;17.44;87.22;94507.34;5028380;28;20662;-89
2023/07/01 03:37:42;;;;;;;7.32;4.55;;;;;;;17.13;86.67;94425.81;5011746;28;20227;-89
2023/07/01 03:40:11;;;;;;;7.22;4.88;;;;;;;17.76;85.79;94509.03;5028160;28;20168;-89
2023/07/01 03:42:37;;;;;;;8.10;5.07;;;;;;;17.68;85.26;94473.09;5012167;28;20259;-89
2023/07/01 03:45:07;;;;;;;10.75;5.10;;;;;;;17.77;84.74;94481.34;5013454;28;20694;-89
2023/07/01 03:47:43;;;;;;;5.90;5.10;;;;;;;17.82;84.60;94455.50;5013773;28;20216;-88
2023/07/01 03:50:09;;;;;;;8.30;4.20;;;;;;;18.03;84.35;94465.13;5011728;28;20230;-88
2023/07/01 03:52:38;;;;;;;5.50;4.72;;;;;;;17.63;83.78;94414.53;5012749;28;20188;-88
2023/07/01 03:55:05;;;;;;;6.95;4.57;;;;;;;18.29;84.17;94513.88;5012743;28;20176;-84
2023/07/01 03:57:31;;;;;;;8.57;5.10;;;;;;;17.91;83.50;94458.44;5012647;28;20211;-82
2023/07/01 03:59:56;;;;;;;7.65;5.70;;;;;;;18.27;84.08;94517.88;5012831;28;20173;-82
2023/07/01 04:02:22;;;;;;;14.68;6.00;;;;;;;18.10;83.98;94475.50;5012841;28;20323;-82
2023/07/01 04:04:48;;;;;;;8.27;5.05;;;;;;;18.37;83.61;94502.69;5013239;28;20694;-82
2023/07/01 04:07:13;;;;;;;6.35;4.82;;;;;;;18.61;82.95;94518.16;5013118;28;20164;-82
2023/07/01 04:09:39;;;;;;;8.05;5.32;;;;;;;18.57;81.97;94493.91;5011259;28;20683;-81
2023/07/01 04:12:05;;;;;;;5.40;4.90;;;;;;;18.46;80.70;94473.63;5012395;28;20173;-80
2023/07/01 04:14:30;;;;;;;9.20;5.18;;;;;;;18.88;81.04;94515.97;5011537;28;20575;-80
2023/07/01 04:16:56;;;;;;;5.32;4.60;;;;;;;19.01;80.23;94510.09;5012306;28;20168;-81
2023/07/01 04:19:21;;;;;;;7.38;4.85;;;;;;;19.25;80.91;94510.25;5012395;28;20168;-81
2023/07/01 04:21:47;;;;;;;6.15;5.32;;;;;;;19.35;79.54;94501.41;5012207;28;20234;-81
2023/07/01 04:24:13;;;;;;;7.97;5.35;;;;;;;19.33;78.93;94463.50;5012049;28;20180;-81
2023/07/01 04:26:38;;;;;;;9.25;5.78;;;;;;;19.68;76.57;94511.41;5012757;28;20176;-81
2023/07/01 04:29:04;;;;;;;5.78;5.00;;;;;;;19.69;77.27;94488.19;5011970;28;20679;-81
2023/07/01 04:31:29;;;;;;;12.80;5.85;;;;;;;20.06;75.66;94519.75;5010661;28;20180;-81
2023/07/01 04:33:55;;;;;;;7.53;5.15;;;;;;;20.22;75.37;94519.34;5011942;28;20156;-81
2023/07/01 04:36:21;;;;;;;6.45;4.72;;;;;;;20.33;74.94;94518.19;5012005;28;20548;-81
2023/07/01 04:38:47;;;;;;;7.68;5.38;;;;;;;20.42;74.65;94512.25;5012050;28;20579;-81
2023/07/01 04:41:13;;;;;;;11.77;5.57;;;;;;;20.49;74.50;94497.50;5012036;28;20168;-80
2023/07/01 04:43:39;;;;;;;10.50;5.07;;;;;;;20.81;73.93;94515.66;5012069;28;20176;-80
2023/07/01 04:46:04;;;;;;;9.25;5.90;;;;;;;20.84;71.99;94487.53;5012573;28;20180;-80
2023/07/01 04:48:30;;;;;;;9.68;5.88;;;;;;;21.21;71.64;94521.69;5012134;28;20651;-80
2023/07/01 04:50:56;;;;;;;6.45;4.95;;;;;;;21.10;69.92;94495.00;5012290;28;20278;-80
2023/07/01 04:53:22;;;;;;;6.07;4.93;;;;;;;21.37;70.52;94518.53;5011981;28;20177;-80
2023/07/01 04:55:47;;;;;;;10.13;5.53;;;;;;;21.54;70.25;94519.94;5011958;28;20176;-80
2023/07/01 04:58:13;;;;;;;8.50;5.50;;;;;;;21.81;68.09;94533.53;5011927;28;20169;-80
2023/07/01 05:00:38;;;;;;;7.78;5.30;;;;;;;22.02;67.78;94542.13;5010645;28;20737;-79
2023/07/01 05:03:04;;;;;;;6.55;5.43;;;;;;;22.08;66.44;94506.09;5011803;28;20222;-79
2023/07/01 05:05:30;;;;;;;15.43;10.15;;;;;;;22.53;65.50;94542.16;5011630;28;20182;-79
2023/07/01 05:07:55;;;;;;;8.32;6.50;;;;;;;22.89;66.32;94537.03;5026466;28;20263;-81
2023/07/01 05:10:21;;;;;;;11.60;8.60;;;;;;;23.14;63.82;94511.59;5011437;28;20203;-82
2023/07/01 05:12:46;;;;;;;14.70;7.82;;;;;;;23.86;61.48;94544.03;5011694;28;20160;-81
2023/07/01 05:15:11;;;;;;;8.50;5.60;;;;;;;23.85;60.76;94505.59;5011543;28;20171;-81
2023/07/01 05:17:37;;;;;;;6.60;5.80;;;;;;;24.43;60.87;94537.13;5011555;28;20653;-81
2023/07/01 05:20:04;;;;;;;7.75;5.70;;;;;;;24.66;59.47;94519.06;5011559;28;20718;-81
2023/07/01 05:22:29;;;;;;;10.35;6.70;;;;;;;25.09;57.01;94546.28;5011560;28;20259;-81
2023/07/01 05:24:54;;;;;;;11.60;7.50;;;;;;;25.21;57.44;94524.94;5010100;28;20743;-80
2023/07/01 05:27:20;;;;;;;7.35;5.90;;;;;;;25.35;56.93;94509.47;5014161;28;20176;-81
2023/07/01 05:29:45;;;;;;;7.22;5.65;;;;;;;25.93;57.27;94546.16;5015278;28;20570;-81
2023/07/01 05:32:10;;;;;;;11.88;7.07;;;;;;;26.32;55.19;94545.25;5015147;28;20180;-82
2023/07/01 05:34:36;;;;;;;10.77;6.75;;;;;;;26.51;54.41;94509.84;5014096;28;20222;-82
2023/07/01 05:37:02;;;;;;;5.43;4.93;;;;;;;26.97;54.88;94536.19;5016015;28;20161;-82
2023/07/01 05:39:29;;;;;;;15.90;5.82;;;;;;;27.43;53.66;94538.88;5016138;28;20156;-83
2023/07/01 05:41:54;;;;;;;8.20;5.07;;;;;;;27.67;52.54;94543.75;5015356;28;20567;-81
2023/07/01 05:44:20;;;;;;;11.60;6.05;;;;;;;27.87;53.78;94527.88;5015241;28;20179;-81
2023/07/01 05:46:45;;;;;;;11.65;4.75;;;;;;;27.89;52.62;94514.81;5015182;28;20255;-85
2023/07/01 05:49:11;;;;;;;8.13;4.97;;;;;;;28.11;50.53;94515.28;5015155;28;20376;-81
2023/07/01 05:51:37;;;;;;;7.95;6.22;;;;;;;28.26;51.22;94541.03;5015715;28;20568;-80
2023/07/01 05:54:03;;;;;;;10.18;5.38;;;;;;;28.45;50.86;94535.91;5015675;28;20157;-84
2023/07/01 05:56:30;;;;;;;16.80;7.45;;;;;;;28.66;49.73;94535.91;5015735;28;20195;-83
2023/07/01 05:58:55;;;;;;;13.05;6.15;;;;;;;28.38;50.55;94505.88;5013210;28;20168;-82
2023/07/01 06:01:21;;;;;;;6.53;5.32;;;;;;;28.41;49.69;94507.13;5014942;28;20279;-83
2023/07/01 06:03:46;;;;;;;8.57;5.72;;;;;;;28.45;52.47;94529.72;5014790;28;20216;-82
2023/07/01 06:06:12;;;;;;;10.75;5.70;;;;;;;28.56;52.53;94546.34;5016022;28;20196;-83
2023/07/01 06:08:37;;;;;;;12.48;5.55;;;;;;;28.60;50.34;94553.50;5015386;28;20699;-81
2023/07/01 06:11:03;;;;;;;7.35;5.40;;;;;;;28.44;49.10;94550.59;5015470;28;20548;-84
2023/07/01 06:13:28;;;;;;;7.47;4.85;;;;;;;28.42;50.96;94546.63;5015257;28;20153;-84
2023/07/01 06:15:53;;;;;;;6.43;5.40;;;;;;;27.89;49.14;94499.38;5014962;28;20570;-82
2023/07/01 06:18:19;;;;;;;11.82;6.03;;;;;;;27.91;49.35;94526.91;5015239;28;20178;-84
2023/07/01 06:20:45;;;;;;;7.78;5.68;;;;;;;27.88;49.28;94538.38;5015172;28;20153;-84
2023/07/01 06:23:10;;;;;;;8.57;5.63;;;;;;;27.40;50.89;94498.97;5014768;28;20662;-86
2023/07/01 06:25:35;;;;;;;7.32;5.80;;;;;;;27.41;51.20;94514.09;5013360;28;20183;-85
2023/07/01 06:28:01;;;;;;;7.90;5.43;;;;;;;27.48;52.88;94516.28;5014637;28;20259;-85
2023/07/01 06:30:26;;;;;;;10.57;6.05;;;;;;;27.77;52.18;94537.94;5014191;28;20188;-84
2023/07/01 06:32:52;;;;;;;9.77;6.53;;;;;;;27.81;52.81;94519.16;5014025;28;20176;-84
2023/07/01 06:35:17;;;;;;;6.68;5.65;;;;;;;27.78;53.19;94511.69;5014082;28;20214;-84
2023/07/01 06:37:43;;;;;;;10.73;6.80;;;;;;;28.12;53.13;94548.56;5012104;28;20172;-85
2023/07/01 06:40:09;;;;;;;10.68;6.63;;;;;;;28.22;50.66;94547.41;5012967;28;20652;-85
2023/07/01 06:42:37;;;;;;;8.60;6.00;;;;;;;28.17;48.46;94529.47;5014507;28;20152;-84
2023/07/01 06:45:03;;;;;;;10.50;6.10;;;;;;;28.19;49.59;94532.66;5029561;28;20171;-85
2023/07/01 06:47:28;;;;;;;7.90;5.20;;;;;;;28.41;52.95;94535.00;5013077;28;20180;-84
2023/07/01 06:49:53;;;;;;;9.20;5.30;;;;;;;28.40;48.19;94538.84;5014084;28;20235;-85
2023/07/01 06:52:19;;;;;;;9.70;5.57;;;;;;;28.19;48.87;94497.44;5014492;28;20152;-85
2023/07/01 06:54:44;;;;;;;10.73;6.13;;;;;;;28.20;48.68;94534.19;5014161;28;20172;-84
2023/07/01 06:57:10;;;;;;;8.65;5.15;;;;;;;27.95;49.57;94514.28;5014246;28;20161;-84
2023/07/01 06:59:35;;;;;;;10.30;5.63;;;;;;;27.90;48.09;94519.91;5013492;28;20247;-84
2023/07/01 07:02:01;;;;;;;7.78;5.47;;;;;;;27.71;48.18;94498.69;5011831;28;20273;-84
2023/07/01 07:04:26;;;;;;;9.57;5.07;;;;;;;27.86;49.09;94500.00;5011274;28;20295;-84
2023/07/01 07:06:51;;;;;;;11.55;5.38;;;;;;;27.83;48.98;94487.16;5013093;28;20680;-85
2023/07/01 07:09:17;;;;;;;10.32;5.50;;;;;;;28.37;49.96;94527.84;5013510;28;20192;-83
2023/07/01 07:11:42;;;;;;;9.52;5.22;;;;;;;28.67;49.22;94502.28;5013425;28;20644;-83
2023/07/01 07:14:08;;;;;;;7.97;5.15;;;;;;;28.95;47.88;94510.63;5013456;28;20184;-84
2023/07/01 07:16:37;;;;;;;5.90;4.95;;;;;;;29.07;49.22;94501.72;5013498;28;20160;-84
2023/07/01 07:19:02;;;;;;;8.63;4.82;;;;;;;29.07;46.91;94469.19;5013148;28;20211;-83
2023/07/01 07:21:27;;;;;;;8.50;4.78;;;;;;;29.42;47.26;94504.84;5013104;28;20668;-83
2023/07/01 07:23:53;;;;;;;6.95;5.28;;;;;;;29.30;46.50;94483.13;5011803;28;20664;-84
2023/07/01 07:26:19;;;;;;;8.98;5.25;;;;;;;29.20;46.04;94503.34;5013035;28;20619;-84
2023/07/01 07:28:44;;;;;;;7.55;5.05;;;;;;;29.30;48.94;94510.25;5013175;28;20640;-84
2023/07/01 07:31:10;;;;;;;8.85;4.72;;;;;;;29.37;46.53;94507.81;5012871;28;20193;-83
2023/07/01 07:33:35;;;;;;;10.30;5.07;;;;;;;29.25;45.87;94473.28;5013076;28;20188;-83
2023/07/01 07:36:01;;;;;;;8.40;4.93;;;;;;;29.30;46.41;94470.38;5011683;28;20604;-83
2023/07/01 07:38:26;;;;;;;6.93;3.83;;;;;;;29.64;46.48;94482.72;5009659;28;20187;-83
2023/07/01 07:40:52;;;;;;;10.85;5.72;;;;;;;29.50;45.40;94461.34;5012756;28;20260;-81
2023/07/01 07:43:17;;;;;;;10.93;4.93;;;;;;;29.86;48.22;94501.22;5012660;28;20175;-81
2023/07/01 07:45:43;;;;;;;5.38;4.65;;;;;;;29.66;43.94;94502.16;5012463;28;20575;-83
2023/07/01 07:48:10;;;;;;;7.03;4.50;;;;;;;29.65;47.70;94476.16;5012753;28;20675;-83
2023/07/01 07:50:35;;;;;;;7.60;5.13;;;;;;;29.56;48.15;94451.84;5011204;28;20583;-90
2023/07/01 07:53:03;;;;;;;7.93;4.18;;;;;;;29.74;46.21;94467.91;5012329;28;20259;-81
2023/07/01 07:55:33;;;;;;;7.53;4.75;;;;;;;29.25;47.83;94476.00;5012358;28;20184;-82
2023/07/01 07:57:59;;;;;;;8.10;5.30;;;;;;;29.11;47.10;94470.91;5012431;28;20199;-84
2023/07/01 08:00:24;;;;;;;9.35;4.43;;;;;;;29.40;46.74;94488.16;5027516;28;20172;-83
2023/07/01 08:02:49;;;;;;;6.93;4.22;;;;;;;29.80;46.53;94490.94;5027238;28;20224;-85
2023/07/01 08:05:17;;;;;;;6.78;4.30;;;;;;;30.13;45.02;94498.97;5012462;28;20168;-89
2023/07/01 08:07:43;;;;;;;7.68;4.30;;;;;;;29.54;42.41;94440.53;5010928;28;20183;-84
2023/07/01 08:10:08;;;;;;;5.47;4.40;;;;;;;29.45;43.33;94428.22;5009809;28;20230;-84
2023/07/01 08:12:34;;;;;;;9.57;5.53;;;;;;;29.87;47.26;94445.00;5012324;28;20177;-83
2023/07/01 08:14:59;;;;;;;5.88;5.15;;;;;;;29.66;43.50;94464.19;5012336;28;20180;-83
2023/07/01 08:17:25;;;;;;;8.07;4.30;;;;;;;29.85;46.51;94466.28;5012415;28;20184;-84
2023/07/01 08:19:50;;;;;;;6.32;4.35;;;;;;;29.55;47.37;94428.56;5012792;28;20211;-83
2023/07/01 08:22:18;;;;;;;7.00;4.30;;;;;;;29.20;46.11;94440.97;5012731;28;21045;-80
2023/07/01 08:24:43;;;;;;;6.65;4.53;;;;;;;29.27;47.94;94436.56;5012547;28;21099;-84
2023/07/01 08:27:09;;;;;;;6.18;4.30;;;;;;;29.51;45.86;94462.91;5011254;28;20168;-85
2023/07/01 08:29:34;;;;;;;5.88;4.82;;;;;;;29.43;45.44;94433.97;5012428;28;20713;-84
2023/07/01 08:32:00;;;;;;;10.35;4.25;;;;;;;29.38;45.09;94436.16;5012820;28;20243;-84
2023/07/01 08:34:25;;;;;;;4.75;4.00;;;;;;;28.76;44.77;94437.97;5011209;28;20259;-83
2023/07/01 08:36:51;;;;;;;5.63;4.10;;;;;;;28.41;47.02;94415.03;5010912;28;20230;-84
2023/07/01 08:39:16;;;;;;;5.28;3.92;;;;;;;28.18;45.41;94395.69;5011811;28;20164;-84
2023/07/01 08:41:51;;;;;;;6.00;4.13;;;;;;;28.24;46.10;94407.09;5011810;28;20179;-85
2023/07/01 08:44:19;;;;;;;4.13;3.67;;;;;;;28.44;45.88;94455.81;5009560;28;20175;-84
2023/07/01 08:46:46;;;;;;;4.97;3.67;;;;;;;28.11;46.35;94417.81;5010501;28;20169;-84
2023/07/01 08:49:15;;;;;;;8.73;4.07;;;;;;;27.97;46.03;94409.19;5012018;28;20192;-83
2023/07/01 08:51:43;;;;;;;4.30;3.90;;;;;;;28.28;45.60;94448.63;5012134;28;20163;-83
2023/07/01 08:54:09;;;;;;;6.85;4.50;;;;;;;27.68;44.67;94383.00;5012136;28;20157;-82
2023/07/01 08:56:35;;;;;;;9.15;4.45;;;;;;;27.76;48.42;94409.19;5012098;28;20172;-84
2023/07/01 08:59:01;;;;;;;8.90;3.78;;;;;;;27.74;45.64;94383.59;5011353;28;20165;-85
2023/07/01 09:01:28;;;;;;;7.00;4.10;;;;;;;27.48;47.41;94374.84;5011928;28;20559;-84
2023/07/01 09:03:54;;;;;;;5.85;3.65;;;;;;;28.07;45.76;94443.97;5011953;28;20219;-84
2023/07/01 09:06:20;;;;;;;7.80;4.07;;;;;;;27.56;46.61;94403.78;5011941;28;20172;-84
2023/07/01 09:08:45;;;;;;;5.20;3.50;;;;;;;27.41;46.61;94395.09;5012176;28;20179;-84
2023/07/01 09:11:15;;;;;;;7.93;4.25;;;;;;;27.79;46.93;94438.31;5010685;28;20192;-83
2023/07/01 09:13:41;;;;;;;5.50;4.95;;;;;;;27.77;48.61;94394.53;5012136;28;20168;-84
2023/07/01 09:16:07;;;;;;;7.95;4.22;;;;;;;27.94;46.29;94404.44;5012106;28;20590;-86
2023/07/01 09:18:33;;;;;;;5.38;4.28;;;;;;;27.94;46.12;94395.53;5010751;28;20230;-84
2023/07/01 09:20:59;;;;;;;5.90;4.03;;;;;;;27.94;45.11;94409.84;5010571;28;20338;-85
2023/07/01 09:23:34;;;;;;;6.72;3.90;;;;;;;27.99;48.16;94419.69;5011562;28;20699;-85
2023/07/01 09:26:10;;;;;;;5.28;3.40;;;;;;;28.19;45.97;94412.72;5009467;28;20255;-84
2023/07/01 09:28:36;;;;;;;7.22;4.30;;;;;;;28.05;46.14;94365.03;5011323;28;20164;-85
2023/07/01 09:31:04;;;;;;;4.25;3.85;;;;;;;28.47;48.20;94402.88;5011473;28;20201;-84
2023/07/01 09:33:30;;;;;;;6.00;4.10;;;;;;;28.57;46.40;94396.22;5011811;28;20203;-83
2023/07/01 09:36:02;;;;;;;5.45;3.63;;;;;;;28.68;46.00;94406.31;5011796;28;20230;-84
2023/07/01 09:38:32;;;;;;;5.40;3.72;;;;;;;28.33;47.31;94361.75;5012430;28;20165;-86
2023/07/01 09:41:14;;;;;;;5.15;3.90;;;;;;;28.47;45.64;94386.59;5010438;28;20199;-82
2023/07/01 09:43:40;;;;;;;6.82;4.00;;;;;;;28.48;45.10;94391.69;5011763;28;20160;-82
2023/07/01 09:46:06;;;;;;;5.97;3.78;;;;;;;27.84;48.64;94283.09;5011690;28;20184;-84
2023/07/01 09:48:33;;;;;;;6.28;3.88;;;;;;;28.51;46.95;94374.00;5010363;28;20172;-83
2023/07/01 09:51:06;;;;;;;4.72;3.63;;;;;;;28.59;45.87;94378.53;5011588;28;20185;-84
2023/07/01 09:53:35;;;;;;;7.10;4.20;;;;;;;28.26;48.77;94337.16;5026830;28;20318;-84
2023/07/01 09:56:04;;;;;;;6.50;3.95;;;;;;;28.25;44.49;94371.56;5011965;28;20164;-86
2023/07/01 09:58:31;;;;;;;6.18;4.03;;;;;;;27.92;46.80;94332.84;5010324;28;20168;-85
2023/07/01 10:00:57;;;;;;;8.77;4.18;;;;;;;27.87;46.43;94333.81;5011572;28;20176;-85
2023/07/01 10:03:26;;;;;;;5.20;4.20;;;;;;;27.84;48.25;94314.75;5011301;28;20231;-83
2023/07/01 10:05:53;;;;;;;5.15;4.55;;;;;;;28.27;47.00;94365.81;5010776;28;20226;-84
2023/07/01 10:08:19;;;;;;;5.85;4.78;;;;;;;28.12;46.14;94327.38;5011558;28;20567;-85
2023/07/01 10:10:52;;;;;;;8.38;4.40;;;;;;;28.17;47.46;94328.31;5011301;28;20196;-85
2023/07/01 10:13:20;;;;;;;6.82;4.07;;;;;;;28.05;45.82;94315.50;5011371;28;20168;-85
2023/07/01 10:15:46;;;;;;;6.97;4.30;;;;;;;28.15;46.44;94353.78;5012469;28;20711;-84
2023/07/01 10:18:22;;;;;;;7.38;4.55;;;;;;;27.89;47.02;94312.63;5010145;28;20177;-83
2023/07/01 10:20:50;;;;;;;5.15;4.07;;;;;;;27.92;48.48;94340.97;5014444;28;20167;-84
2023/07/01 10:23:15;;;;;;;6.72;4.25;;;;;;;27.96;50.00;94342.66;5014595;28;20179;-84
2023/07/01 10:25:41;;;;;;;4.85;4.15;;;;;;;27.91;47.66;94326.63;5015405;28;20256;-85
2023/07/01 10:28:11;;;;;;;10.60;4.25;;;;;;;27.62;47.42;94286.94;5014899;28;20156;-84
2023/07/01 10:30:45;;;;;;;5.68;4.00;;;;;;;27.92;48.32;94328.22;5014760;28;20184;-84
2023/07/01 10:33:30;;;;;;;8.02;4.25;;;;;;;27.75;47.59;94312.13;5014133;28;20206;-83
2023/07/01 10:36:02;;;;;;;6.38;4.18;;;;;;;27.81;49.91;94318.13;5014000;28;20164;-82
2023/07/01 10:38:30;;;;;;;15.43;4.72;;;;;;;27.68;52.54;94290.22;5014197;28;20169;-83
2023/07/01 10:40:55;;;;;;;10.50;4.28;;;;;;;27.75;50.83;94287.78;5014414;28;20177;-86
2023/07/01 10:43:24;;;;;;;5.97;3.72;;;;;;;27.82;47.55;94289.94;5014585;28;20171;-86
2023/07/01 10:46:24;;;;;;;5.40;4.47;;;;;;;28.10;48.97;94323.44;5014391;28;20171;-85
2023/07/01 10:49:01;;;;;;;6.80;4.43;;;;;;;28.12;50.92;94318.44;5013898;28;20180;-84
2023/07/01 10:51:27;;;;;;;7.57;4.88;;;;;;;27.96;53.92;94285.81;5014185;28;20242;-86
2023/07/01 10:54:05;;;;;;;10.40;4.07;;;;;;;28.34;49.99;94323.50;5028975;28;20644;-86
2023/07/01 10:56:33;;;;;;;6.03;4.70;;;;;;;28.27;49.74;94290.78;5013571;28;20644;-85
2023/07/01 10:59:17;;;;;;;8.70;5.20;;;;;;;28.66;53.72;94316.44;5012366;28;20227;-85
2023/07/01 11:01:44;;;;;;;8.02;5.13;;;;;;;28.50;53.28;94269.47;5011270;28;20259;-85
2023/07/01 11:04:10;;;;;;;7.38;4.82;;;;;;;28.62;53.30;94253.22;5011495;28;20228;-85
2023/07/01 11:06:55;;;;;;;6.53;5.03;;;;;;;29.05;51.79;94309.59;5012388;28;20264;-85
2023/07/01 11:09:31;;;;;;;8.93;4.38;;;;;;;29.13;48.99;94305.97;5011372;28;20200;-81
2023/07/01 11:11:57;;;;;;;7.03;4.93;;;;;;;29.10;49.19;94305.84;5013654;28;20179;-85
2023/07/01 11:14:30;;;;;;;5.22;4.43;;;;;;;29.12;47.31;94303.59;5013531;28;20717;-82
2023/07/01 11:17:08;;;;;;;11.18;5.22;;;;;;;29.04;47.05;94293.66;5027603;28;20256;-84
2023/07/01 11:19:33;;;;;;;5.45;4.45;;;;;;;28.75;47.16;94278.38;5013887;28;20188;-83
2023/07/01 11:22:01;;;;;;;6.03;5.10;;;;;;;28.54;48.08;94276.56;5014448;28;20246;-83
2023/07/01 11:24:26;;;;;;;5.03;4.53;;;;;;;28.30;49.79;94264.94;5013481;28;20161;-92
2023/07/01 11:27:00;;;;;;;4.63;4.22;;;;;;;28.41;48.62;94293.16;5028935;28;20172;-83
2023/07/01 11:29:25;;;;;;;6.07;4.30;;;;;;;28.44;49.39;94290.59;5013864;28;20283;-81
2023/07/01 11:31:59;;;;;;;9.60;4.80;;;;;;;28.41;47.65;94287.75;5013527;28;20207;-84